Time;durP1;ratioP1;P1;durP2;ratioP2;P2;SDS_P1;SDS_P2;PMS_P1;PMS_P2;Temp;Humidity;BMP_temperature;BMP_pressure;BME280_temperature;BME280_humidity;BME280_pressure;Samples;Min_cycle;Max_cycle;Signal;HPM_P1;HPM_P2
2022/03/31 00:00:24;;;;;;;6.93;3.47;;;3.10;99.90;;;;;;5011329;28;20054;-71
2022/03/31 00:02:51;;;;;;;7.95;3.40;;;3.10;99.90;;;;;;5020383;28;20069;-70
2022/03/31 00:05:17;;;;;;;19.70;4.10;;;3.10;99.90;;;;;;5009775;28;20436;-70
2022/03/31 00:07:48;;;;;;;5.82;3.35;;;3.10;99.90;;;;;;5017966;28;20045;-71
2022/03/31 00:10:20;;;;;;;4.95;3.05;;;3.10;99.90;;;;;;5009705;28;20765;-71
2022/03/31 00:12:46;;;;;;;6.65;3.47;;;3.10;99.90;;;;;;4996189;28;20089;-71
2022/03/31 00:15:12;;;;;;;10.82;3.25;;;3.10;99.90;;;;;;4991137;28;20519;-70
2022/03/31 00:17:37;;;;;;;8.88;3.45;;;3.20;99.90;;;;;;5014056;28;20045;-70
2022/03/31 00:20:04;;;;;;;16.40;3.95;;;3.20;99.90;;;;;;5013601;28;20041;-70
2022/03/31 00:32:37;;;;;;;6.93;4.00;;;3.20;99.90;;;;;;4998906;28;20140;-70
2022/03/31 00:35:04;;;;;;;8.10;3.90;;;3.20;99.90;;;;;;5016872;28;20049;-70
2022/03/31 00:37:41;;;;;;;12.85;3.45;;;3.20;99.90;;;;;;5006466;28;20108;-70
2022/03/31 00:40:09;;;;;;;6.20;3.75;;;3.30;99.90;;;;;;5019985;28;20049;-70
2022/03/31 00:42:43;;;;;;;4.45;3.10;;;3.30;99.90;;;;;;5015705;28;20393;-70
2022/03/31 00:45:17;;;;;;;6.47;3.10;;;3.30;99.90;;;;;;5015611;28;20060;-70
2022/03/31 00:47:43;;;;;;;6.22;3.20;;;3.30;99.90;;;;;;5011176;28;20092;-70
2022/03/31 00:50:11;;;;;;;6.10;3.40;;;3.30;99.90;;;;;;5009096;28;20500;-70
2022/03/31 00:52:37;;;;;;;10.18;3.33;;;3.30;99.90;;;;;;5003941;28;20053;-71
2022/03/31 00:55:04;;;;;;;9.02;3.55;;;3.30;99.90;;;;;;5013440;28;20139;-70
2022/03/31 00:57:31;;;;;;;8.73;3.58;;;3.30;99.90;;;;;;5010967;28;20046;-71
2022/03/31 00:59:57;;;;;;;7.47;3.92;;;3.30;99.90;;;;;;5016710;28;20053;-71
2022/03/31 01:02:30;;;;;;;7.57;4.07;;;3.20;99.90;;;;;;5006845;28;20092;-71
2022/03/31 01:05:00;;;;;;;5.82;4.32;;;3.20;99.90;;;;;;5018125;28;20057;-69
2022/03/31 01:07:26;;;;;;;8.52;4.60;;;3.20;99.90;;;;;;5004289;28;20076;-70
2022/03/31 01:09:54;;;;;;;12.00;4.30;;;3.10;99.90;;;;;;5014441;28;20077;-70
2022/03/31 01:12:20;;;;;;;7.07;4.70;;;3.10;99.90;;;;;;5020076;28;20543;-70
2022/03/31 01:14:45;;;;;;;11.15;5.03;;;3.10;99.90;;;;;;5007248;28;20073;-71
2022/03/31 01:17:11;;;;;;;18.33;5.82;;;3.10;99.90;;;;;;5020206;28;20038;-70
2022/03/31 01:19:37;;;;;;;6.78;4.90;;;3.10;99.90;;;;;;5002188;28;20136;-70
2022/03/31 01:22:04;;;;;;;8.63;4.53;;;3.10;99.90;;;;;;5013221;28;20068;-70
2022/03/31 01:24:30;;;;;;;7.32;4.20;;;3.10;99.90;;;;;;5014196;28;20108;-71
2022/03/31 01:26:55;;;;;;;9.68;4.88;;;3.00;99.90;;;;;;5019526;28;20439;-70
2022/03/31 01:29:23;;;;;;;9.35;4.85;;;3.00;99.90;;;;;;5001058;28;20042;-70
2022/03/31 01:31:50;;;;;;;10.60;5.78;;;3.00;99.90;;;;;;5006890;28;20048;-70
2022/03/31 01:34:16;;;;;;;10.27;5.72;;;3.00;99.90;;;;;;5019188;28;20061;-71
2022/03/31 01:36:42;;;;;;;8.73;5.00;;;2.90;99.90;;;;;;5011965;28;20537;-71
2022/03/31 01:39:08;;;;;;;12.65;5.72;;;3.00;99.90;;;;;;5017524;28;20049;-70
2022/03/31 01:41:34;;;;;;;10.35;5.68;;;2.90;99.90;;;;;;5022211;28;20070;-70
2022/03/31 01:44:00;;;;;;;11.15;5.32;;;3.00;99.90;;;;;;5002814;28;20046;-71
2022/03/31 01:46:26;;;;;;;8.35;4.88;;;3.00;99.90;;;;;;5022840;28;20080;-71
2022/03/31 01:48:52;;;;;;;9.32;4.80;;;3.00;99.90;;;;;;5010598;28;20507;-71
2022/03/31 01:51:18;;;;;;;12.85;5.55;;;3.00;99.90;;;;;;5018510;28;20050;-70
2022/03/31 01:53:44;;;;;;;9.20;5.25;;;3.00;99.90;;;;;;5011239;28;20447;-71
2022/03/31 01:56:10;;;;;;;16.30;6.35;;;3.00;99.90;;;;;;5022598;28;20042;-69
2022/03/31 01:58:36;;;;;;;17.88;7.43;;;3.00;99.90;;;;;;5004120;28;20049;-71
2022/03/31 02:01:04;;;;;;;16.40;8.32;;;3.00;99.90;;;;;;5005547;28;20128;-71
2022/03/31 02:03:30;;;;;;;12.18;7.95;;;3.00;99.90;;;;;;5005091;28;20045;-71
2022/03/31 02:05:56;;;;;;;15.93;7.95;;;3.00;99.90;;;;;;5008221;28;20136;-70
2022/03/31 02:08:21;;;;;;;13.10;8.05;;;3.00;99.90;;;;;;5005037;28;20499;-70
2022/03/31 02:10:48;;;;;;;14.35;9.52;;;3.00;99.90;;;;;;5007075;28;20056;-70
2022/03/31 02:13:15;;;;;;;13.18;8.60;;;3.00;99.90;;;;;;5013872;28;20041;-70
2022/03/31 02:15:41;;;;;;;14.23;9.95;;;3.00;99.90;;;;;;5009774;28;20049;-70
2022/03/31 02:18:07;;;;;;;16.55;11.30;;;3.00;99.90;;;;;;5018395;28;20121;-70
2022/03/31 02:20:34;;;;;;;16.35;11.50;;;3.00;99.90;;;;;;5006606;28;20133;-71
2022/03/31 02:23:00;;;;;;;17.08;10.77;;;3.00;99.90;;;;;;4998359;28;20117;-70
2022/03/31 02:25:29;;;;;;;15.27;12.25;;;3.00;99.90;;;;;;5009435;28;20056;-70
2022/03/31 02:27:55;;;;;;;;;;;2.90;99.90;;;;;;5014722;28;20045;-70
2022/03/31 02:30:23;;;;;;;23.52;13.00;;;2.90;99.90;;;;;;5015149;28;20375;-70
2022/03/31 02:32:50;;;;;;;15.77;11.18;;;2.90;99.90;;;;;;5009926;28;20050;-70
2022/03/31 02:35:17;;;;;;;19.00;13.68;;;2.90;99.90;;;;;;5010170;28;20069;-69
2022/03/31 02:37:42;;;;;;;17.67;12.77;;;2.90;99.90;;;;;;5008486;28;20058;-70
2022/03/31 02:40:08;;;;;;;22.40;12.88;;;2.90;99.90;;;;;;5009873;28;20100;-69
2022/03/31 02:42:35;;;;;;;17.80;13.75;;;2.90;99.90;;;;;;5011868;28;20034;-70
2022/03/31 02:45:06;;;;;;;26.90;15.55;;;2.90;99.90;;;;;;5011212;28;20049;-70
2022/03/31 02:47:34;;;;;;;19.00;13.38;;;2.90;99.90;;;;;;5006561;28;20049;-70
2022/03/31 02:49:59;;;;;;;22.98;16.00;;;2.90;99.90;;;;;;5009195;28;20058;-69
2022/03/31 02:52:25;;;;;;;22.67;15.90;;;2.90;99.90;;;;;;5013709;28;20056;-70
2022/03/31 02:57:35;;;;;;;27.35;18.00;;;3.00;99.90;;;;;;5010703;28;20137;-70
2022/03/31 03:00:03;;;;;;;31.25;20.33;;;3.00;99.90;;;;;;5020662;28;20145;-69
2022/03/31 03:02:29;;;;;;;28.63;22.38;;;3.00;99.90;;;;;;5007121;28;20129;-70
2022/03/31 03:04:55;;;;;;;27.25;20.73;;;3.00;99.90;;;;;;5010144;28;20125;-70
2022/03/31 03:07:21;;;;;;;31.27;23.08;;;3.00;99.90;;;;;;5008328;28;20104;-70
2022/03/31 03:09:46;;;;;;;29.92;21.95;;;3.00;99.90;;;;;;5013350;28;20077;-70
2022/03/31 03:12:12;;;;;;;30.20;21.08;;;3.00;99.90;;;;;;5013175;28;20045;-69
2022/03/31 03:14:38;;;;;;;28.38;23.05;;;2.90;99.90;;;;;;5015948;28;20484;-70
2022/03/31 03:17:04;;;;;;;30.48;22.85;;;2.90;99.90;;;;;;5021558;28;20125;-69
2022/03/31 03:19:29;;;;;;;29.80;22.52;;;2.90;99.90;;;;;;5007712;28;20077;-70
2022/03/31 03:21:55;;;;;;;27.90;21.05;;;2.80;99.90;;;;;;5000809;28;20487;-69
2022/03/31 03:24:22;;;;;;;27.67;21.52;;;2.80;99.90;;;;;;5009002;28;20096;-69
2022/03/31 03:26:48;;;;;;;34.45;22.25;;;2.80;99.90;;;;;;5007463;28;20092;-69
2022/03/31 03:29:13;;;;;;;30.35;22.35;;;2.80;99.90;;;;;;5009512;28;20057;-70
2022/03/31 03:31:39;;;;;;;32.38;22.08;;;2.70;99.90;;;;;;5006522;28;20827;-69
2022/03/31 03:34:04;;;;;;;31.67;22.02;;;2.70;99.90;;;;;;5019660;28;20076;-69
2022/03/31 03:36:30;;;;;;;32.90;24.50;;;2.70;99.90;;;;;;5020725;28;20053;-69
2022/03/31 03:38:57;;;;;;;26.50;22.40;;;2.70;99.90;;;;;;5003956;28;20072;-70
2022/03/31 03:41:23;;;;;;;34.78;24.38;;;2.70;99.90;;;;;;5021727;28;20081;-69
2022/03/31 03:43:49;;;;;;;31.88;24.10;;;2.70;99.90;;;;;;5008370;28;20085;-70
2022/03/31 03:46:15;;;;;;;31.42;24.05;;;2.70;99.90;;;;;;4991760;28;20065;-69
2022/03/31 03:48:40;;;;;;;31.42;23.80;;;2.70;99.90;;;;;;4997505;28;20054;-69
2022/03/31 03:51:09;;;;;;;31.13;22.58;;;2.70;99.90;;;;;;5007690;28;20081;-70
2022/03/31 03:53:35;;;;;;;;;;;2.70;99.90;;;;;;5008946;28;20053;-69
2022/03/31 03:56:01;;;;;;;32.45;24.60;;;2.70;99.90;;;;;;5009237;28;20494;-70
2022/03/31 03:58:27;;;;;;;29.17;22.83;;;2.70;99.90;;;;;;5008576;28;20046;-70
2022/03/31 04:00:53;;;;;;;28.60;23.02;;;2.70;99.90;;;;;;5008435;28;20037;-70
2022/03/31 04:03:20;;;;;;;32.25;25.13;;;2.70;99.90;;;;;;5007552;28;20474;-71
2022/03/31 04:05:45;;;;;;;30.55;23.48;;;2.70;99.90;;;;;;5007889;28;20570;-70
2022/03/31 04:08:11;;;;;;;32.60;22.58;;;2.70;99.90;;;;;;5008201;28;20045;-70
2022/03/31 04:10:37;;;;;;;28.08;21.77;;;2.70;99.90;;;;;;5008153;28;20084;-71
2022/03/31 04:13:02;;;;;;;26.60;21.83;;;2.70;99.90;;;;;;5007905;28;20046;-70
2022/03/31 04:15:28;;;;;;;29.70;21.85;;;2.70;99.90;;;;;;5007855;28;20050;-70
2022/03/31 04:17:54;;;;;;;30.10;23.17;;;2.70;99.90;;;;;;5016215;28;20157;-70
2022/03/31 04:20:20;;;;;;;32.40;22.75;;;2.70;99.90;;;;;;5008218;28;20525;-69
2022/03/31 04:22:46;;;;;;;30.52;23.00;;;2.70;99.90;;;;;;5009318;28;20602;-69
2022/03/31 04:25:13;;;;;;;29.08;22.42;;;2.70;99.90;;;;;;5007971;28;20042;-69
2022/03/31 04:27:40;;;;;;;29.15;22.67;;;2.70;99.90;;;;;;5008960;28;20392;-68
2022/03/31 04:30:09;;;;;;;33.88;24.17;;;2.70;99.90;;;;;;5009451;28;20053;-70
2022/03/31 04:32:35;;;;;;;29.98;22.33;;;2.70;99.90;;;;;;5005669;28;20511;-70
2022/03/31 04:35:02;;;;;;;32.58;23.67;;;2.70;99.90;;;;;;5006733;28;20108;-70
2022/03/31 04:37:28;;;;;;;31.13;22.80;;;2.70;99.90;;;;;;5008733;28;20176;-69
2022/03/31 04:39:54;;;;;;;31.25;21.80;;;2.70;99.90;;;;;;5006782;28;20116;-69
2022/03/31 04:42:20;;;;;;;35.13;25.63;;;2.70;99.90;;;;;;5006890;28;20502;-70
2022/03/31 04:44:46;;;;;;;30.98;23.30;;;2.70;99.90;;;;;;5007824;28;20096;-70
2022/03/31 04:47:12;;;;;;;23.33;19.90;;;2.70;99.90;;;;;;5011922;28;20049;-69
2022/03/31 04:49:38;;;;;;;30.42;23.25;;;2.70;99.90;;;;;;5024192;28;20057;-70
2022/03/31 04:52:04;;;;;;;31.00;22.90;;;2.70;99.90;;;;;;5013344;28;20128;-69
2022/03/31 04:54:30;;;;;;;28.33;23.20;;;2.70;99.90;;;;;;5016716;28;20060;-70
2022/03/31 04:56:56;;;;;;;33.65;23.73;;;2.70;99.90;;;;;;5003975;28;20392;-69
2022/03/31 04:59:21;;;;;;;31.65;23.85;;;2.70;99.90;;;;;;5007597;28;20049;-69
2022/03/31 05:01:48;;;;;;;28.10;20.77;;;2.70;99.90;;;;;;5011703;28;20046;-69
2022/03/31 05:04:14;;;;;;;28.65;23.85;;;2.60;99.90;;;;;;5007509;28;20153;-69
2022/03/31 05:06:40;;;;;;;27.98;23.40;;;2.60;99.90;;;;;;5007478;28;20144;-69
2022/03/31 05:09:06;;;;;;;34.88;26.63;;;2.60;99.90;;;;;;5008469;28;20057;-69
2022/03/31 05:11:31;;;;;;;32.80;24.65;;;2.60;99.90;;;;;;5008052;28;20038;-69
2022/03/31 05:13:57;;;;;;;33.05;24.63;;;2.60;99.90;;;;;;5009229;28;20136;-69
2022/03/31 05:16:23;;;;;;;31.00;24.73;;;2.60;99.90;;;;;;5006152;28;20042;-69
2022/03/31 05:18:48;;;;;;;33.90;25.83;;;2.60;99.90;;;;;;5012810;28;20065;-69
2022/03/31 05:21:15;;;;;;;37.17;27.75;;;2.60;99.90;;;;;;5021295;28;20847;-69
2022/03/31 05:23:40;;;;;;;31.48;25.33;;;2.60;99.90;;;;;;5018631;28;20720;-69
2022/03/31 05:26:06;;;;;;;30.13;23.83;;;2.60;99.90;;;;;;5020076;28;20034;-68
2022/03/31 05:28:32;;;;;;;27.92;21.67;;;2.60;99.90;;;;;;5011856;28;20038;-68
2022/03/31 05:30:58;;;;;;;27.63;21.83;;;2.60;99.90;;;;;;5007999;28;20124;-70
2022/03/31 05:33:23;;;;;;;34.03;23.65;;;2.60;99.90;;;;;;5004456;28;20047;-70
2022/03/31 05:35:50;;;;;;;26.00;22.33;;;2.60;99.90;;;;;;5010194;28;20099;-69
2022/03/31 05:38:16;;;;;;;30.75;23.33;;;2.60;99.90;;;;;;5018228;28;20116;-70
2022/03/31 05:40:41;;;;;;;24.50;20.88;;;2.60;99.90;;;;;;5020961;28;20042;-69
2022/03/31 05:43:09;;;;;;;22.65;20.08;;;2.60;99.90;;;;;;5002566;28;20038;-70
2022/03/31 05:45:35;;;;;;;26.37;22.37;;;2.60;99.90;;;;;;5011132;28;20049;-70
2022/03/31 05:48:00;;;;;;;28.58;22.85;;;2.60;99.90;;;;;;5010998;28;20062;-70
2022/03/31 05:50:27;;;;;;;28.45;22.67;;;2.60;99.90;;;;;;5020160;28;20050;-70
2022/03/31 05:52:53;;;;;;;29.17;21.65;;;2.50;99.90;;;;;;5018690;28;20049;-71
2022/03/31 05:55:20;;;;;;;24.30;21.73;;;2.50;99.90;;;;;;5014518;28;20517;-70
2022/03/31 05:57:46;;;;;;;31.15;22.38;;;2.50;99.90;;;;;;5004195;28;20147;-70
2022/03/31 06:00:21;;;;;;;25.45;20.40;;;2.50;99.90;;;;;;5009332;28;20054;-70
2022/03/31 06:02:48;;;;;;;27.77;22.38;;;2.50;99.90;;;;;;5005779;28;20480;-70
2022/03/31 06:05:15;;;;;;;28.08;22.30;;;2.50;99.90;;;;;;5006128;28;20076;-71
2022/03/31 06:07:42;;;;;;;26.63;22.20;;;2.50;99.90;;;;;;5018991;28;20068;-70
2022/03/31 06:10:08;;;;;;;29.98;24.75;;;2.50;99.90;;;;;;5013048;28;20041;-70
2022/03/31 06:12:34;;;;;;;27.67;23.70;;;2.50;99.90;;;;;;5014435;28;20054;-70
2022/03/31 06:15:01;;;;;;;32.05;25.08;;;2.50;99.90;;;;;;5001612;28;20096;-70
2022/03/31 06:17:27;;;;;;;29.17;23.55;;;2.50;99.90;;;;;;5012345;28;20682;-70
2022/03/31 06:19:52;;;;;;;25.73;21.75;;;2.50;99.90;;;;;;4993702;28;20049;-70
2022/03/31 06:22:18;;;;;;;32.40;26.08;;;2.50;99.90;;;;;;5002252;28;20049;-70
2022/03/31 06:24:44;;;;;;;33.28;25.55;;;2.60;99.90;;;;;;5007325;28;20053;-70
2022/03/31 06:27:11;;;;;;;29.02;23.15;;;2.50;99.90;;;;;;5011698;28;20041;-70
2022/03/31 06:29:38;;;;;;;31.85;24.17;;;2.50;99.90;;;;;;5015789;28;20152;-70
2022/03/31 06:32:06;;;;;;;30.15;24.98;;;2.50;99.90;;;;;;5010341;28;20129;-70
2022/03/31 06:34:32;;;;;;;29.92;24.33;;;2.50;99.90;;;;;;5011937;28;20053;-67
2022/03/31 06:36:57;;;;;;;30.60;25.15;;;2.50;99.90;;;;;;5003394;28;20038;-67
2022/03/31 06:39:23;;;;;;;30.80;24.05;;;2.50;99.90;;;;;;5008453;28;20081;-69
2022/03/31 06:41:49;;;;;;;36.78;27.48;;;2.50;99.90;;;;;;5010688;28;20046;-68
2022/03/31 06:44:16;;;;;;;36.08;28.60;;;2.50;99.90;;;;;;5006195;28;20058;-69
2022/03/31 06:46:42;;;;;;;32.30;26.85;;;2.50;99.90;;;;;;5008886;28;20535;-68
2022/03/31 06:49:09;;;;;;;39.55;30.33;;;2.50;99.90;;;;;;5020570;28;20095;-69
2022/03/31 06:51:35;;;;;;;34.72;28.13;;;2.60;99.90;;;;;;5011413;28;20038;-68
2022/03/31 06:54:02;;;;;;;38.08;29.30;;;2.60;99.90;;;;;;5005404;28;20042;-70
2022/03/31 06:56:29;;;;;;;34.70;27.65;;;2.60;99.90;;;;;;5014123;28;20046;-69
2022/03/31 06:58:56;;;;;;;39.38;29.88;;;2.60;99.90;;;;;;5011519;28;20460;-72
2022/03/31 07:01:22;;;;;;;40.97;31.08;;;2.60;99.90;;;;;;5010503;28;20053;-69
2022/03/31 07:03:47;;;;;;;39.22;31.15;;;2.60;99.90;;;;;;5008506;28;20095;-70
2022/03/31 07:06:14;;;;;;;38.85;29.77;;;2.60;99.90;;;;;;5005932;28;20050;-68
2022/03/31 07:08:40;;;;;;;41.60;29.88;;;2.70;99.90;;;;;;5005695;28;20046;-70
2022/03/31 07:11:05;;;;;;;41.17;31.35;;;2.70;99.90;;;;;;5007628;28;20048;-69
2022/03/31 07:13:31;;;;;;;44.60;33.72;;;2.70;99.90;;;;;;4996609;28;20057;-69
2022/03/31 07:15:57;;;;;;;42.90;31.60;;;2.70;99.90;;;;;;4997841;28;20130;-69
2022/03/31 07:18:23;;;;;;;47.53;33.95;;;2.70;99.90;;;;;;5007598;28;20046;-69
2022/03/31 07:20:50;;;;;;;41.55;31.60;;;2.70;99.90;;;;;;5010640;28;20045;-69
2022/03/31 07:23:23;;;;;;;44.53;34.03;;;2.70;99.90;;;;;;5020127;28;20048;-70
2022/03/31 07:25:53;;;;;;;47.53;34.13;;;2.80;99.90;;;;;;5012068;28;20080;-69
2022/03/31 07:28:19;;;;;;;45.05;34.50;;;2.80;99.90;;;;;;5019301;28;20087;-71
2022/03/31 07:30:47;;;;;;;47.90;34.70;;;2.80;99.90;;;;;;5022695;28;20128;-70
2022/03/31 07:33:12;;;;;;;48.22;35.60;;;2.80;99.90;;;;;;5020272;28;20095;-70
2022/03/31 07:35:39;;;;;;;57.50;37.15;;;2.80;99.90;;;;;;5012428;28;20037;-70
2022/03/31 07:38:08;;;;;;;50.35;35.95;;;2.90;99.90;;;;;;4999270;28;20061;-72
2022/03/31 07:40:38;;;;;;;46.45;34.17;;;2.90;99.90;;;;;;5008959;28;20085;-71
2022/03/31 07:43:05;;;;;;;48.10;33.88;;;2.90;99.90;;;;;;5003306;28;20137;-73
2022/03/31 07:45:35;;;;;;;47.75;34.63;;;3.00;99.90;;;;;;5012155;28;20057;-70
2022/03/31 07:48:03;;;;;;;55.33;36.35;;;2.90;99.90;;;;;;5015785;28;20089;-70
2022/03/31 07:50:29;;;;;;;44.72;33.50;;;3.00;99.90;;;;;;5002419;28;20058;-69
2022/03/31 07:52:55;;;;;;;46.55;33.55;;;3.00;99.90;;;;;;5018683;28;21113;-70
2022/03/31 07:55:21;;;;;;;44.38;32.50;;;2.90;99.90;;;;;;5015569;28;20140;-70
2022/03/31 07:57:48;;;;;;;42.63;31.15;;;2.90;99.90;;;;;;5010280;28;20077;-71
2022/03/31 08:00:16;;;;;;;42.17;32.30;;;2.90;99.90;;;;;;4994495;28;20077;-70
2022/03/31 08:02:43;;;;;;;38.05;29.40;;;2.90;99.90;;;;;;5012140;28;20057;-71
2022/03/31 08:05:11;;;;;;;43.08;30.98;;;2.90;99.90;;;;;;5005696;28;20652;-71
2022/03/31 08:07:37;;;;;;;40.95;32.22;;;2.90;99.90;;;;;;5009514;28;20059;-71
2022/03/31 08:10:04;;;;;;;41.72;30.95;;;2.90;99.90;;;;;;5006532;28;20053;-71
2022/03/31 08:12:30;;;;;;;40.17;28.85;;;2.90;99.90;;;;;;5008498;28;20050;-70
2022/03/31 08:14:57;;;;;;;38.90;30.85;;;2.90;99.90;;;;;;5006918;28;20054;-69
2022/03/31 08:17:23;;;;;;;36.40;28.20;;;2.90;99.90;;;;;;5012663;28;20143;-70
2022/03/31 08:19:49;;;;;;;38.88;29.20;;;2.90;99.90;;;;;;5014584;28;20472;-70
2022/03/31 08:22:17;;;;;;;39.53;28.20;;;3.00;99.90;;;;;;5026085;28;20053;-71
2022/03/31 08:24:43;;;;;;;33.38;26.45;;;3.00;99.90;;;;;;5010360;28;20046;-69
2022/03/31 08:27:09;;;;;;;31.83;23.92;;;2.90;99.90;;;;;;5005761;28;20049;-69
2022/03/31 08:29:35;;;;;;;31.65;23.33;;;2.90;99.90;;;;;;5008063;28;20495;-70
2022/03/31 08:32:01;;;;;;;29.42;23.55;;;2.90;99.90;;;;;;5011891;28;20075;-70
2022/03/31 08:34:27;;;;;;;34.40;26.98;;;2.90;99.90;;;;;;5007129;28;20099;-70
2022/03/31 08:36:53;;;;;;;33.05;24.88;;;2.90;99.90;;;;;;5007395;28;20057;-70
2022/03/31 08:39:21;;;;;;;27.50;21.48;;;2.90;99.90;;;;;;5007677;28;20054;-71
2022/03/31 08:41:47;;;;;;;32.75;24.35;;;2.90;99.90;;;;;;5010175;28;20054;-70
2022/03/31 08:44:15;;;;;;;28.25;22.52;;;2.90;99.90;;;;;;5007046;28;20647;-70
2022/03/31 08:46:41;;;;;;;28.25;20.52;;;2.80;99.90;;;;;;5009655;28;20076;-70
2022/03/31 08:49:12;;;;;;;24.52;19.25;;;2.80;99.90;;;;;;5014968;28;20050;-70
2022/03/31 08:51:38;;;;;;;20.88;17.15;;;2.80;99.90;;;;;;5014483;28;20060;-69
2022/03/31 08:54:05;;;;;;;21.13;16.55;;;2.70;99.90;;;;;;5007701;28;20503;-70
2022/03/31 08:56:31;;;;;;;22.73;16.63;;;2.80;99.90;;;;;;5006958;28;20058;-70
2022/03/31 08:58:57;;;;;;;15.85;13.07;;;2.70;99.90;;;;;;5003703;28;20049;-69
2022/03/31 09:01:23;;;;;;;14.43;11.35;;;2.70;99.90;;;;;;5009091;28;20050;-70
2022/03/31 09:03:49;;;;;;;11.52;9.98;;;2.60;99.90;;;;;;5019978;28;20047;-70
2022/03/31 09:06:23;;;;;;;13.05;10.60;;;2.60;99.90;;;;;;5008110;28;20049;-69
2022/03/31 09:09:04;;;;;;;13.73;11.20;;;2.60;99.90;;;;;;5006902;28;20053;-69
2022/03/31 09:11:37;;;;;;;11.38;10.18;;;2.60;99.90;;;;;;5018057;28;20045;-70
2022/03/31 09:14:05;;;;;;;12.57;11.02;;;2.60;99.90;;;;;;5002137;28;20782;-70
2022/03/31 09:16:35;;;;;;;14.45;11.52;;;2.60;99.90;;;;;;5017739;28;20916;-69
2022/03/31 09:19:09;;;;;;;16.05;13.75;;;2.50;99.90;;;;;;5008767;28;20152;-69
2022/03/31 09:21:48;;;;;;;12.73;10.82;;;2.60;99.90;;;;;;5007016;28;20060;-70
2022/03/31 09:24:18;;;;;;;11.73;10.30;;;2.50;99.90;;;;;;5015816;28;20046;-70
2022/03/31 09:26:49;;;;;;;14.75;11.93;;;2.50;99.90;;;;;;5005783;28;20059;-70
2022/03/31 09:29:19;;;;;;;14.57;11.82;;;2.50;99.90;;;;;;5010326;28;20446;-69
2022/03/31 09:31:46;;;;;;;17.83;13.77;;;2.40;99.90;;;;;;5006746;28;20050;-69
2022/03/31 09:34:13;;;;;;;16.73;12.43;;;2.40;99.90;;;;;;5008009;28;20064;-69
2022/03/31 09:36:52;;;;;;;15.73;12.88;;;2.40;99.90;;;;;;5011263;28;20511;-69
2022/03/31 09:39:20;;;;;;;14.73;12.82;;;2.30;99.90;;;;;;5009480;28;20096;-69
2022/03/31 09:41:48;;;;;;;14.00;11.80;;;2.20;99.90;;;;;;5016093;28;20541;-69
2022/03/31 09:44:23;;;;;;;12.98;11.25;;;2.20;99.90;;;;;;5004065;28;20045;-71
2022/03/31 09:46:50;;;;;;;15.85;13.07;;;2.20;99.90;;;;;;4995020;28;20057;-70
2022/03/31 09:49:25;;;;;;;14.63;11.82;;;2.10;99.90;;;;;;5002882;28;20046;-70
2022/03/31 09:51:56;;;;;;;19.27;13.52;;;2.10;99.90;;;;;;5006169;28;20073;-70
2022/03/31 09:54:25;;;;;;;15.40;12.48;;;2.00;99.90;;;;;;4998477;28;20571;-70
2022/03/31 09:56:51;;;;;;;16.67;13.32;;;1.90;99.90;;;;;;5006210;28;20096;-69
2022/03/31 09:59:17;;;;;;;18.27;13.80;;;1.80;99.90;;;;;;5006453;28;20073;-69
2022/03/31 10:01:44;;;;;;;17.35;12.95;;;1.80;99.90;;;;;;5022739;28;20049;-69
2022/03/31 10:04:12;;;;;;;18.25;13.15;;;1.80;99.90;;;;;;5005202;28;20041;-69
2022/03/31 10:06:39;;;;;;;17.85;13.80;;;1.70;99.90;;;;;;5008475;28;20065;-69
2022/03/31 10:09:07;;;;;;;15.93;12.98;;;1.70;99.90;;;;;;4996472;28;20052;-68
2022/03/31 10:11:40;;;;;;;16.08;13.35;;;1.60;99.90;;;;;;5012001;28;20050;-68
2022/03/31 10:14:43;;;;;;;17.88;13.35;;;1.60;99.90;;;;;;5009098;28;20125;-69
2022/03/31 10:17:10;;;;;;;20.38;15.00;;;1.50;99.90;;;;;;5026277;28;20673;-69
2022/03/31 10:19:42;;;;;;;18.23;14.20;;;1.50;99.90;;;;;;5015412;28;20459;-68
2022/03/31 10:25:09;;;;;;;21.25;14.90;;;1.40;99.90;;;;;;5013384;28;20483;-69
2022/03/31 10:27:40;;;;;;;19.38;14.68;;;1.40;99.90;;;;;;5013584;28;20076;-68
2022/03/31 10:30:14;;;;;;;19.23;13.95;;;1.40;99.90;;;;;;5008629;28;20061;-69
2022/03/31 10:33:02;;;;;;;19.50;14.63;;;1.40;99.90;;;;;;5012562;28;20359;-69
2022/03/31 10:35:32;;;;;;;21.17;14.98;;;1.30;99.90;;;;;;5004955;28;20418;-70
2022/03/31 10:38:10;;;;;;;17.92;15.45;;;1.30;99.90;;;;;;5002350;28;20052;-68
2022/03/31 10:40:38;;;;;;;22.08;15.75;;;1.30;99.90;;;;;;5009008;28;20049;-69
2022/03/31 10:43:05;;;;;;;19.67;15.02;;;1.20;99.90;;;;;;5001807;28;20069;-69
2022/03/31 10:45:44;;;;;;;22.70;16.95;;;1.30;99.90;;;;;;5023005;28;20057;-70
2022/03/31 10:48:22;;;;;;;18.20;14.32;;;1.20;99.90;;;;;;5008976;28;20057;-70
2022/03/31 10:51:04;;;;;;;20.23;15.48;;;1.20;99.90;;;;;;5014683;28;20045;-69
2022/03/31 10:53:32;;;;;;;20.17;15.50;;;1.10;99.90;;;;;;5016618;28;20066;-69
2022/03/31 10:56:00;;;;;;;22.10;15.03;;;1.10;99.90;;;;;;5013183;28;20080;-70
2022/03/31 10:58:30;;;;;;;19.23;14.50;;;1.10;99.90;;;;;;5015210;28;20426;-69
2022/03/31 11:01:00;;;;;;;18.38;14.27;;;1.10;99.90;;;;;;4998366;28;20466;-68
2022/03/31 11:03:27;;;;;;;15.90;13.88;;;1.10;99.90;;;;;;5009851;28;20045;-69
2022/03/31 11:05:53;;;;;;;20.13;15.20;;;1.10;99.90;;;;;;5008224;28;20889;-69
2022/03/31 11:08:18;;;;;;;20.77;15.00;;;1.10;99.90;;;;;;4990004;28;20038;-70
2022/03/31 11:10:50;;;;;;;23.05;16.50;;;1.00;99.90;;;;;;5004033;28;20050;-70
2022/03/31 11:13:18;;;;;;;23.38;14.43;;;1.10;99.90;;;;;;5009121;28;20046;-70
2022/03/31 11:16:04;;;;;;;18.92;14.70;;;1.00;99.90;;;;;;5009113;28;20121;-69
2022/03/31 11:18:30;;;;;;;19.02;15.57;;;1.10;99.90;;;;;;5015103;28;20125;-70
2022/03/31 11:21:04;;;;;;;19.77;15.82;;;1.10;99.90;;;;;;5002927;28;20129;-70
2022/03/31 11:23:31;;;;;;;20.50;16.25;;;1.10;99.90;;;;;;5009397;28;20539;-69
2022/03/31 11:25:58;;;;;;;19.25;14.82;;;1.00;99.90;;;;;;4992631;28;20034;-70
2022/03/31 11:28:27;;;;;;;19.27;15.60;;;1.10;99.90;;;;;;5008495;28;20133;-70
2022/03/31 11:30:54;;;;;;;21.33;16.90;;;1.10;99.90;;;;;;5007993;28;20096;-70
2022/03/31 11:33:20;;;;;;;23.27;18.02;;;1.10;99.90;;;;;;5008112;28;20177;-70
2022/03/31 11:35:51;;;;;;;20.08;16.50;;;1.10;99.90;;;;;;5022149;28;20113;-69
2022/03/31 11:38:19;;;;;;;25.92;18.30;;;1.10;99.90;;;;;;5008509;28;20053;-69
2022/03/31 11:40:47;;;;;;;23.33;17.13;;;1.10;99.90;;;;;;5010834;28;20376;-69
2022/03/31 11:43:18;;;;;;;22.48;17.65;;;1.10;99.90;;;;;;5010906;28;20109;-69
2022/03/31 11:45:50;;;;;;;22.30;16.90;;;1.10;99.90;;;;;;5014628;28;20068;-69
2022/03/31 11:48:18;;;;;;;22.27;17.60;;;1.20;99.90;;;;;;5018736;28;21204;-69
2022/03/31 11:50:52;;;;;;;26.48;20.05;;;1.20;99.90;;;;;;5008265;28;20042;-69
2022/03/31 11:53:20;;;;;;;29.10;21.85;;;1.20;99.90;;;;;;5008322;28;20085;-70
2022/03/31 11:55:59;;;;;;;25.23;19.93;;;1.20;99.90;;;;;;5000325;28;20119;-69
2022/03/31 11:58:25;;;;;;;29.50;23.13;;;1.30;99.90;;;;;;4994097;28;20731;-71
2022/03/31 12:00:51;;;;;;;31.08;23.60;;;1.30;99.90;;;;;;4998165;28;20439;-71
2022/03/31 12:03:18;;;;;;;35.17;26.25;;;1.30;99.90;;;;;;5012576;28;20045;-70
2022/03/31 12:06:00;;;;;;;36.38;27.55;;;1.40;99.90;;;;;;5007575;28;20455;-71
2022/03/31 12:08:26;;;;;;;37.20;27.83;;;1.40;99.90;;;;;;5004978;28;20049;-71
2022/03/31 12:10:53;;;;;;;45.33;30.45;;;1.40;99.90;;;;;;5005877;28;20046;-71
2022/03/31 12:13:21;;;;;;;43.80;30.13;;;1.50;99.90;;;;;;5008784;28;20054;-71
2022/03/31 12:15:47;;;;;;;46.83;33.92;;;1.50;99.90;;;;;;4999356;28;20052;-70
2022/03/31 12:18:18;;;;;;;48.28;33.80;;;1.60;99.90;;;;;;5022839;28;20041;-72
2022/03/31 12:20:49;;;;;;;54.08;38.08;;;1.70;99.90;;;;;;5013929;28;20058;-70
2022/03/31 12:23:23;;;;;;;60.55;41.83;;;1.70;99.90;;;;;;5005824;28;20054;-71
2022/03/31 12:25:50;;;;;;;61.25;42.33;;;1.80;99.90;;;;;;5001103;28;20541;-70
2022/03/31 12:28:20;;;;;;;62.45;43.47;;;1.90;99.90;;;;;;5007236;28;20561;-70
2022/03/31 12:30:47;;;;;;;69.88;46.75;;;2.00;99.90;;;;;;5003191;28;20046;-70
2022/03/31 12:33:20;;;;;;;70.97;47.72;;;2.10;99.90;;;;;;5007032;28;20034;-70
2022/03/31 12:35:57;;;;;;;76.75;47.22;;;2.20;99.90;;;;;;5007816;28;20054;-72
2022/03/31 12:38:54;;;;;;;75.65;49.42;;;2.30;99.90;;;;;;5007110;28;20057;-70
2022/03/31 12:41:27;;;;;;;77.30;50.55;;;2.40;99.90;;;;;;5001951;28;20065;-71
2022/03/31 12:44:15;;;;;;;64.85;44.97;;;2.50;99.90;;;;;;5010399;28;20400;-72
2022/03/31 12:46:45;;;;;;;53.70;37.40;;;2.60;99.90;;;;;;5014508;28;20058;-73
2022/03/31 12:49:13;;;;;;;51.30;36.90;;;2.60;99.90;;;;;;5007692;28;20092;-74
2022/03/31 12:51:46;;;;;;;56.88;38.83;;;2.70;99.90;;;;;;5009043;28;20099;-72
2022/03/31 12:54:39;;;;;;;48.17;33.00;;;2.70;99.90;;;;;;5004204;28;20069;-72
2022/03/31 12:57:07;;;;;;;51.63;36.13;;;2.70;99.90;;;;;;5000252;28;20077;-72
2022/03/31 12:59:34;;;;;;;51.97;34.33;;;2.70;99.90;;;;;;5008046;28;20054;-72